sensor_id;sensor_type;location;lat;lon;timestamp;P1;durP1;ratioP1;P2;durP2;ratioP2
51438;SDS011;38816;51.142;-0.974;2022-10-22T00:00:46;41.88;;;2.90;;
51438;SDS011;38816;51.142;-0.974;2022-10-22T00:03:11;27.95;;;3.15;;
51438;SDS011;38816;51.142;-0.974;2022-10-22T00:05:37;24.02;;;2.60;;
51438;SDS011;38816;51.142;-0.974;2022-10-22T00:08:02;25.42;;;2.78;;
51438;SDS011;38816;51.142;-0.974;2022-10-22T00:10:28;35.15;;;3.35;;
51438;SDS011;38816;51.142;-0.974;2022-10-22T00:12:53;25.45;;;2.83;;
51438;SDS011;38816;51.142;-0.974;2022-10-22T00:15:18;33.65;;;3.08;;
51438;SDS011;38816;51.142;-0.974;2022-10-22T00:17:44;39.33;;;2.90;;
51438;SDS011;38816;51.142;-0.974;2022-10-22T00:20:11;39.38;;;3.45;;
51438;SDS011;38816;51.142;-0.974;2022-10-22T00:22:36;35.33;;;3.30;;
51438;SDS011;38816;51.142;-0.974;2022-10-22T00:25:02;36.20;;;3.28;;
51438;SDS011;38816;51.142;-0.974;2022-10-22T00:27:27;33.20;;;3.40;;
51438;SDS011;38816;51.142;-0.974;2022-10-22T00:29:53;37.25;;;3.13;;
51438;SDS011;38816;51.142;-0.974;2022-10-22T00:32:18;34.50;;;3.15;;
51438;SDS011;38816;51.142;-0.974;2022-10-22T00:34:43;42.90;;;3.55;;
51438;SDS011;38816;51.142;-0.974;2022-10-22T00:37:09;37.58;;;3.88;;
51438;SDS011;38816;51.142;-0.974;2022-10-22T00:39:34;43.10;;;3.13;;
51438;SDS011;38816;51.142;-0.974;2022-10-22T00:41:59;35.55;;;3.20;;
51438;SDS011;38816;51.142;-0.974;2022-10-22T00:47:32;34.55;;;2.95;;
51438;SDS011;38816;51.142;-0.974;2022-10-22T00:50:00;35.08;;;3.00;;
51438;SDS011;38816;51.142;-0.974;2022-10-22T00:52:27;22.92;;;2.83;;
51438;SDS011;38816;51.142;-0.974;2022-10-22T00:54:53;18.00;;;2.35;;
51438;SDS011;38816;51.142;-0.974;2022-10-22T00:57:19;28.05;;;2.67;;
51438;SDS011;38816;51.142;-0.974;2022-10-22T00:59:45;20.15;;;2.50;;
51438;SDS011;38816;51.142;-0.974;2022-10-22T01:02:11;31.60;;;2.90;;
51438;SDS011;38816;51.142;-0.974;2022-10-22T01:04:37;26.45;;;2.95;;
51438;SDS011;38816;51.142;-0.974;2022-10-22T01:07:02;31.38;;;2.58;;
51438;SDS011;38816;51.142;-0.974;2022-10-22T01:15:02;30.65;;;3.00;;
51438;SDS011;38816;51.142;-0.974;2022-10-22T01:20:16;21.42;;;3.08;;
51438;SDS011;38816;51.142;-0.974;2022-10-22T01:26:31;29.00;;;2.33;;
51438;SDS011;38816;51.142;-0.974;2022-10-22T01:29:24;25.03;;;2.10;;
51438;SDS011;38816;51.142;-0.974;2022-10-22T01:31:58;19.42;;;2.50;;
51438;SDS011;38816;51.142;-0.974;2022-10-22T01:34:26;14.32;;;1.90;;
51438;SDS011;38816;51.142;-0.974;2022-10-22T01:36:54;25.05;;;2.05;;
51438;SDS011;38816;51.142;-0.974;2022-10-22T01:39:21;23.40;;;2.22;;
51438;SDS011;38816;51.142;-0.974;2022-10-22T01:41:49;19.05;;;2.30;;
51438;SDS011;38816;51.142;-0.974;2022-10-22T01:44:22;19.10;;;2.13;;
51438;SDS011;38816;51.142;-0.974;2022-10-22T01:46:47;21.15;;;2.20;;
51438;SDS011;38816;51.142;-0.974;2022-10-22T01:49:22;20.50;;;1.98;;
51438;SDS011;38816;51.142;-0.974;2022-10-22T01:54:45;22.88;;;2.28;;
51438;SDS011;38816;51.142;-0.974;2022-10-22T01:57:44;19.88;;;2.13;;
51438;SDS011;38816;51.142;-0.974;2022-10-22T02:00:19;18.40;;;2.00;;
51438;SDS011;38816;51.142;-0.974;2022-10-22T02:03:07;16.38;;;1.40;;
51438;SDS011;38816;51.142;-0.974;2022-10-22T02:08:19;16.67;;;1.67;;
51438;SDS011;38816;51.142;-0.974;2022-10-22T02:10:50;12.38;;;1.70;;
51438;SDS011;38816;51.142;-0.974;2022-10-22T02:13:18;12.82;;;1.65;;
51438;SDS011;38816;51.142;-0.974;2022-10-22T02:15:50;13.73;;;1.70;;
51438;SDS011;38816;51.142;-0.974;2022-10-22T02:18:18;20.42;;;1.98;;
51438;SDS011;38816;51.142;-0.974;2022-10-22T02:20:48;22.70;;;1.80;;
51438;SDS011;38816;51.142;-0.974;2022-10-22T02:23:14;17.90;;;1.90;;
51438;SDS011;38816;51.142;-0.974;2022-10-22T02:25:41;15.95;;;2.03;;
51438;SDS011;38816;51.142;-0.974;2022-10-22T02:28:15;14.95;;;1.63;;
51438;SDS011;38816;51.142;-0.974;2022-10-22T02:30:48;15.77;;;1.55;;
51438;SDS011;38816;51.142;-0.974;2022-10-22T02:33:25;18.80;;;1.63;;
51438;SDS011;38816;51.142;-0.974;2022-10-22T02:35:54;14.88;;;1.88;;
51438;SDS011;38816;51.142;-0.974;2022-10-22T02:38:22;14.45;;;1.58;;
51438;SDS011;38816;51.142;-0.974;2022-10-22T02:40:49;16.70;;;1.80;;
51438;SDS011;38816;51.142;-0.974;2022-10-22T02:43:15;14.65;;;1.88;;
51438;SDS011;38816;51.142;-0.974;2022-10-22T02:45:42;18.65;;;1.95;;
51438;SDS011;38816;51.142;-0.974;2022-10-22T02:48:07;21.38;;;1.98;;
51438;SDS011;38816;51.142;-0.974;2022-10-22T02:50:32;22.40;;;1.92;;
51438;SDS011;38816;51.142;-0.974;2022-10-22T02:52:58;20.02;;;1.80;;
51438;SDS011;38816;51.142;-0.974;2022-10-22T02:55:23;20.35;;;2.10;;
51438;SDS011;38816;51.142;-0.974;2022-10-22T02:57:49;18.58;;;1.90;;
51438;SDS011;38816;51.142;-0.974;2022-10-22T03:00:14;20.08;;;2.28;;
51438;SDS011;38816;51.142;-0.974;2022-10-22T03:02:40;19.38;;;2.10;;
51438;SDS011;38816;51.142;-0.974;2022-10-22T03:05:05;20.35;;;2.20;;
51438;SDS011;38816;51.142;-0.974;2022-10-22T03:07:31;21.27;;;2.10;;
51438;SDS011;38816;51.142;-0.974;2022-10-22T03:09:57;22.58;;;2.65;;
51438;SDS011;38816;51.142;-0.974;2022-10-22T03:12:22;22.65;;;3.58;;
51438;SDS011;38816;51.142;-0.974;2022-10-22T03:14:48;19.90;;;1.98;;
51438;SDS011;38816;51.142;-0.974;2022-10-22T03:17:13;18.17;;;2.50;;
51438;SDS011;38816;51.142;-0.974;2022-10-22T03:19:39;22.70;;;2.38;;
51438;SDS011;38816;51.142;-0.974;2022-10-22T03:22:06;24.13;;;2.00;;
51438;SDS011;38816;51.142;-0.974;2022-10-22T03:24:37;21.67;;;1.90;;
51438;SDS011;38816;51.142;-0.974;2022-10-22T03:27:05;24.42;;;2.42;;
51438;SDS011;38816;51.142;-0.974;2022-10-22T03:29:32;16.83;;;1.80;;
51438;SDS011;38816;51.142;-0.974;2022-10-22T03:32:00;18.88;;;1.80;;
51438;SDS011;38816;51.142;-0.974;2022-10-22T03:34:25;26.50;;;2.28;;
51438;SDS011;38816;51.142;-0.974;2022-10-22T03:36:51;19.20;;;1.92;;
51438;SDS011;38816;51.142;-0.974;2022-10-22T03:39:17;26.98;;;2.25;;
51438;SDS011;38816;51.142;-0.974;2022-10-22T03:41:44;34.95;;;3.95;;
51438;SDS011;38816;51.142;-0.974;2022-10-22T03:44:10;20.20;;;2.10;;
51438;SDS011;38816;51.142;-0.974;2022-10-22T03:46:36;30.63;;;2.70;;
51438;SDS011;38816;51.142;-0.974;2022-10-22T03:49:02;19.27;;;2.67;;
51438;SDS011;38816;51.142;-0.974;2022-10-22T03:51:28;25.15;;;2.33;;
51438;SDS011;38816;51.142;-0.974;2022-10-22T03:53:53;25.65;;;2.80;;
51438;SDS011;38816;51.142;-0.974;2022-10-22T03:56:19;23.40;;;2.53;;
51438;SDS011;38816;51.142;-0.974;2022-10-22T03:58:44;16.63;;;1.77;;
51438;SDS011;38816;51.142;-0.974;2022-10-22T04:04:09;22.50;;;2.08;;
51438;SDS011;38816;51.142;-0.974;2022-10-22T04:06:34;21.48;;;2.22;;
51438;SDS011;38816;51.142;-0.974;2022-10-22T04:08:59;20.10;;;2.15;;
51438;SDS011;38816;51.142;-0.974;2022-10-22T04:11:26;27.52;;;2.45;;
51438;SDS011;38816;51.142;-0.974;2022-10-22T04:13:51;32.22;;;2.92;;
51438;SDS011;38816;51.142;-0.974;2022-10-22T04:16:20;22.40;;;2.20;;
51438;SDS011;38816;51.142;-0.974;2022-10-22T04:18:47;16.00;;;2.17;;
51438;SDS011;38816;51.142;-0.974;2022-10-22T04:21:14;18.10;;;1.67;;
51438;SDS011;38816;51.142;-0.974;2022-10-22T04:23:48;23.63;;;2.15;;
51438;SDS011;38816;51.142;-0.974;2022-10-22T04:26:15;24.85;;;2.70;;
51438;SDS011;38816;51.142;-0.974;2022-10-22T04:28:42;24.73;;;2.35;;
51438;SDS011;38816;51.142;-0.974;2022-10-22T04:31:12;27.02;;;2.38;;
51438;SDS011;38816;51.142;-0.974;2022-10-22T04:33:39;27.67;;;2.55;;
51438;SDS011;38816;51.142;-0.974;2022-10-22T04:36:14;24.75;;;2.10;;
51438;SDS011;38816;51.142;-0.974;2022-10-22T04:38:43;23.08;;;2.55;;
51438;SDS011;38816;51.142;-0.974;2022-10-22T04:41:15;32.13;;;1.98;;
51438;SDS011;38816;51.142;-0.974;2022-10-22T04:43:42;33.25;;;2.33;;
51438;SDS011;38816;51.142;-0.974;2022-10-22T04:46:09;23.80;;;2.85;;
51438;SDS011;38816;51.142;-0.974;2022-10-22T04:48:36;29.00;;;2.60;;
51438;SDS011;38816;51.142;-0.974;2022-10-22T04:51:02;26.90;;;3.10;;
51438;SDS011;38816;51.142;-0.974;2022-10-22T04:53:29;37.70;;;2.80;;
51438;SDS011;38816;51.142;-0.974;2022-10-22T04:55:54;35.05;;;2.15;;
51438;SDS011;38816;51.142;-0.974;2022-10-22T04:58:19;28.75;;;2.47;;
51438;SDS011;38816;51.142;-0.974;2022-10-22T05:00:45;32.08;;;2.67;;
51438;SDS011;38816;51.142;-0.974;2022-10-22T05:03:10;28.83;;;2.40;;
51438;SDS011;38816;51.142;-0.974;2022-10-22T05:05:36;21.00;;;2.42;;
51438;SDS011;38816;51.142;-0.974;2022-10-22T05:08:01;35.72;;;2.72;;
51438;SDS011;38816;51.142;-0.974;2022-10-22T05:10:26;30.63;;;2.33;;
51438;SDS011;38816;51.142;-0.974;2022-10-22T05:12:52;27.90;;;2.33;;
51438;SDS011;38816;51.142;-0.974;2022-10-22T05:15:17;25.35;;;2.53;;
51438;SDS011;38816;51.142;-0.974;2022-10-22T05:17:43;34.45;;;2.90;;
51438;SDS011;38816;51.142;-0.974;2022-10-22T05:20:08;45.25;;;2.90;;
51438;SDS011;38816;51.142;-0.974;2022-10-22T05:22:34;25.65;;;2.38;;
51438;SDS011;38816;51.142;-0.974;2022-10-22T05:25:00;37.40;;;2.85;;
51438;SDS011;38816;51.142;-0.974;2022-10-22T05:27:25;39.22;;;3.97;;
51438;SDS011;38816;51.142;-0.974;2022-10-22T05:29:50;33.90;;;3.38;;
51438;SDS011;38816;51.142;-0.974;2022-10-22T05:32:16;25.77;;;2.50;;
51438;SDS011;38816;51.142;-0.974;2022-10-22T05:34:41;30.08;;;3.30;;
51438;SDS011;38816;51.142;-0.974;2022-10-22T05:37:07;29.60;;;3.42;;
51438;SDS011;38816;51.142;-0.974;2022-10-22T05:39:32;32.50;;;2.65;;
51438;SDS011;38816;51.142;-0.974;2022-10-22T05:42:00;33.30;;;3.20;;
51438;SDS011;38816;51.142;-0.974;2022-10-22T05:44:29;39.45;;;2.90;;
51438;SDS011;38816;51.142;-0.974;2022-10-22T05:46:54;34.80;;;4.05;;
51438;SDS011;38816;51.142;-0.974;2022-10-22T05:49:19;32.55;;;2.88;;
51438;SDS011;38816;51.142;-0.974;2022-10-22T05:51:45;38.65;;;2.70;;
51438;SDS011;38816;51.142;-0.974;2022-10-22T05:54:14;42.92;;;3.10;;
51438;SDS011;38816;51.142;-0.974;2022-10-22T05:59:10;26.08;;;2.58;;
51438;SDS011;38816;51.142;-0.974;2022-10-22T06:01:37;33.80;;;2.67;;
51438;SDS011;38816;51.142;-0.974;2022-10-22T06:04:06;40.88;;;2.60;;
51438;SDS011;38816;51.142;-0.974;2022-10-22T06:06:47;34.65;;;2.78;;
51438;SDS011;38816;51.142;-0.974;2022-10-22T06:09:18;34.40;;;3.03;;
51438;SDS011;38816;51.142;-0.974;2022-10-22T06:11:46;47.15;;;4.72;;
51438;SDS011;38816;51.142;-0.974;2022-10-22T06:14:13;45.10;;;3.25;;
51438;SDS011;38816;51.142;-0.974;2022-10-22T06:16:39;38.83;;;2.97;;
51438;SDS011;38816;51.142;-0.974;2022-10-22T06:19:05;31.98;;;2.83;;
51438;SDS011;38816;51.142;-0.974;2022-10-22T06:21:35;31.33;;;2.85;;
51438;SDS011;38816;51.142;-0.974;2022-10-22T06:24:01;29.02;;;2.70;;
51438;SDS011;38816;51.142;-0.974;2022-10-22T06:26:27;38.15;;;3.40;;
51438;SDS011;38816;51.142;-0.974;2022-10-22T06:28:53;43.63;;;3.10;;
51438;SDS011;38816;51.142;-0.974;2022-10-22T06:31:19;28.08;;;2.92;;
51438;SDS011;38816;51.142;-0.974;2022-10-22T06:33:45;39.95;;;3.33;;
51438;SDS011;38816;51.142;-0.974;2022-10-22T06:36:11;49.70;;;3.70;;
51438;SDS011;38816;51.142;-0.974;2022-10-22T06:38:39;26.63;;;2.50;;
51438;SDS011;38816;51.142;-0.974;2022-10-22T06:41:09;34.85;;;3.78;;
51438;SDS011;38816;51.142;-0.974;2022-10-22T06:43:36;36.38;;;3.30;;
51438;SDS011;38816;51.142;-0.974;2022-10-22T06:46:04;37.45;;;2.95;;
51438;SDS011;38816;51.142;-0.974;2022-10-22T06:48:32;31.75;;;3.10;;
51438;SDS011;38816;51.142;-0.974;2022-10-22T06:51:00;31.40;;;2.88;;
51438;SDS011;38816;51.142;-0.974;2022-10-22T06:53:30;25.50;;;2.15;;
51438;SDS011;38816;51.142;-0.974;2022-10-22T06:55:55;35.83;;;2.75;;
51438;SDS011;38816;51.142;-0.974;2022-10-22T06:58:21;28.35;;;3.08;;
51438;SDS011;38816;51.142;-0.974;2022-10-22T07:00:46;32.45;;;2.78;;
51438;SDS011;38816;51.142;-0.974;2022-10-22T07:03:12;38.15;;;3.85;;
51438;SDS011;38816;51.142;-0.974;2022-10-22T07:05:38;26.35;;;2.33;;
51438;SDS011;38816;51.142;-0.974;2022-10-22T07:08:05;22.67;;;2.13;;
51438;SDS011;38816;51.142;-0.974;2022-10-22T07:10:30;36.30;;;2.95;;
51438;SDS011;38816;51.142;-0.974;2022-10-22T07:12:56;31.27;;;2.33;;
51438;SDS011;38816;51.142;-0.974;2022-10-22T07:15:22;30.15;;;2.60;;
51438;SDS011;38816;51.142;-0.974;2022-10-22T07:17:47;26.30;;;2.08;;
51438;SDS011;38816;51.142;-0.974;2022-10-22T07:20:13;25.23;;;2.47;;
51438;SDS011;38816;51.142;-0.974;2022-10-22T07:22:38;38.00;;;2.85;;
51438;SDS011;38816;51.142;-0.974;2022-10-22T07:25:04;22.95;;;2.10;;
51438;SDS011;38816;51.142;-0.974;2022-10-22T07:27:29;34.63;;;2.80;;
51438;SDS011;38816;51.142;-0.974;2022-10-22T07:29:55;32.97;;;2.75;;
51438;SDS011;38816;51.142;-0.974;2022-10-22T07:32:20;27.67;;;2.22;;
51438;SDS011;38816;51.142;-0.974;2022-10-22T07:34:45;33.22;;;2.75;;
51438;SDS011;38816;51.142;-0.974;2022-10-22T07:37:11;27.02;;;2.35;;
51438;SDS011;38816;51.142;-0.974;2022-10-22T07:39:36;31.08;;;2.20;;
51438;SDS011;38816;51.142;-0.974;2022-10-22T07:42:02;23.80;;;2.40;;
51438;SDS011;38816;51.142;-0.974;2022-10-22T07:44:27;28.83;;;2.50;;
51438;SDS011;38816;51.142;-0.974;2022-10-22T07:46:52;34.10;;;3.95;;
51438;SDS011;38816;51.142;-0.974;2022-10-22T07:49:18;39.30;;;2.53;;
51438;SDS011;38816;51.142;-0.974;2022-10-22T07:51:43;42.00;;;2.95;;
51438;SDS011;38816;51.142;-0.974;2022-10-22T07:54:09;31.38;;;2.92;;
51438;SDS011;38816;51.142;-0.974;2022-10-22T07:56:34;31.70;;;3.13;;
51438;SDS011;38816;51.142;-0.974;2022-10-22T07:58:59;45.35;;;3.92;;
51438;SDS011;38816;51.142;-0.974;2022-10-22T08:01:25;34.60;;;3.20;;
51438;SDS011;38816;51.142;-0.974;2022-10-22T08:03:50;35.03;;;2.78;;
51438;SDS011;38816;51.142;-0.974;2022-10-22T08:06:16;28.77;;;3.28;;
51438;SDS011;38816;51.142;-0.974;2022-10-22T08:08:41;30.23;;;3.10;;
51438;SDS011;38816;51.142;-0.974;2022-10-22T08:11:09;27.10;;;2.78;;
51438;SDS011;38816;51.142;-0.974;2022-10-22T08:13:35;39.03;;;3.30;;
51438;SDS011;38816;51.142;-0.974;2022-10-22T08:16:01;33.22;;;3.70;;
51438;SDS011;38816;51.142;-0.974;2022-10-22T08:18:27;40.60;;;3.97;;
51438;SDS011;38816;51.142;-0.974;2022-10-22T08:20:53;40.97;;;3.28;;
51438;SDS011;38816;51.142;-0.974;2022-10-22T08:23:18;34.42;;;2.88;;
51438;SDS011;38816;51.142;-0.974;2022-10-22T08:25:44;36.38;;;3.08;;
51438;SDS011;38816;51.142;-0.974;2022-10-22T08:28:10;34.47;;;3.70;;
51438;SDS011;38816;51.142;-0.974;2022-10-22T08:30:36;41.38;;;3.45;;
51438;SDS011;38816;51.142;-0.974;2022-10-22T08:33:03;38.53;;;3.03;;
51438;SDS011;38816;51.142;-0.974;2022-10-22T08:35:29;42.65;;;3.42;;
51438;SDS011;38816;51.142;-0.974;2022-10-22T08:37:54;25.58;;;2.88;;
51438;SDS011;38816;51.142;-0.974;2022-10-22T08:40:23;32.10;;;3.60;;
51438;SDS011;38816;51.142;-0.974;2022-10-22T08:50:48;30.40;;;2.83;;
51438;SDS011;38816;51.142;-0.974;2022-10-22T08:53:16;43.78;;;4.10;;
51438;SDS011;38816;51.142;-0.974;2022-10-22T08:55:45;43.80;;;3.85;;
51438;SDS011;38816;51.142;-0.974;2022-10-22T08:58:16;42.00;;;4.47;;
51438;SDS011;38816;51.142;-0.974;2022-10-22T09:03:49;37.38;;;3.95;;
51438;SDS011;38816;51.142;-0.974;2022-10-22T09:06:26;31.85;;;3.05;;
51438;SDS011;38816;51.142;-0.974;2022-10-22T09:08:53;34.05;;;3.05;;
51438;SDS011;38816;51.142;-0.974;2022-10-22T09:11:24;37.05;;;3.00;;
51438;SDS011;38816;51.142;-0.974;2022-10-22T09:13:58;37.50;;;2.78;;
51438;SDS011;38816;51.142;-0.974;2022-10-22T09:24:38;35.28;;;3.50;;
51438;SDS011;38816;51.142;-0.974;2022-10-22T09:27:15;35.88;;;2.95;;
51438;SDS011;38816;51.142;-0.974;2022-10-22T09:29:46;41.25;;;3.63;;
51438;SDS011;38816;51.142;-0.974;2022-10-22T09:32:12;36.75;;;3.42;;
51438;SDS011;38816;51.142;-0.974;2022-10-22T09:34:39;42.60;;;3.13;;
51438;SDS011;38816;51.142;-0.974;2022-10-22T09:37:06;43.33;;;3.53;;
51438;SDS011;38816;51.142;-0.974;2022-10-22T09:39:35;32.13;;;3.00;;
51438;SDS011;38816;51.142;-0.974;2022-10-22T09:42:03;39.20;;;3.03;;
51438;SDS011;38816;51.142;-0.974;2022-10-22T09:44:31;33.88;;;3.17;;
51438;SDS011;38816;51.142;-0.974;2022-10-22T09:46:59;45.13;;;3.95;;
51438;SDS011;38816;51.142;-0.974;2022-10-22T09:49:27;33.72;;;3.15;;
51438;SDS011;38816;51.142;-0.974;2022-10-22T09:51:57;37.70;;;3.70;;
51438;SDS011;38816;51.142;-0.974;2022-10-22T09:54:25;38.05;;;3.53;;
51438;SDS011;38816;51.142;-0.974;2022-10-22T09:57:04;33.65;;;2.75;;
51438;SDS011;38816;51.142;-0.974;2022-10-22T09:59:46;31.47;;;3.30;;
51438;SDS011;38816;51.142;-0.974;2022-10-22T10:02:25;32.42;;;3.25;;
51438;SDS011;38816;51.142;-0.974;2022-10-22T10:04:53;30.40;;;3.38;;
51438;SDS011;38816;51.142;-0.974;2022-10-22T10:07:24;36.08;;;3.00;;
51438;SDS011;38816;51.142;-0.974;2022-10-22T10:09:51;30.33;;;3.75;;
51438;SDS011;38816;51.142;-0.974;2022-10-22T10:14:52;27.75;;;3.40;;
51438;SDS011;38816;51.142;-0.974;2022-10-22T10:23:20;22.45;;;2.60;;
51438;SDS011;38816;51.142;-0.974;2022-10-22T10:25:56;34.67;;;3.40;;
51438;SDS011;38816;51.142;-0.974;2022-10-22T10:28:52;23.35;;;3.00;;
51438;SDS011;38816;51.142;-0.974;2022-10-22T10:31:25;22.55;;;3.47;;
51438;SDS011;38816;51.142;-0.974;2022-10-22T11:04:49;11.75;;;1.73;;
51438;SDS011;38816;51.142;-0.974;2022-10-22T11:07:28;22.98;;;2.83;;
51438;SDS011;38816;51.142;-0.974;2022-10-22T11:10:03;18.13;;;2.17;;
51438;SDS011;38816;51.142;-0.974;2022-10-22T11:12:51;24.02;;;2.75;;
51438;SDS011;38816;51.142;-0.974;2022-10-22T11:15:36;16.30;;;2.03;;
51438;SDS011;38816;51.142;-0.974;2022-10-22T11:18:15;16.50;;;2.38;;
51438;SDS011;38816;51.142;-0.974;2022-10-22T11:23:12;15.43;;;2.20;;
51438;SDS011;38816;51.142;-0.974;2022-10-22T11:25:45;12.75;;;1.63;;
51438;SDS011;38816;51.142;-0.974;2022-10-22T11:28:23;14.13;;;1.83;;
51438;SDS011;38816;51.142;-0.974;2022-10-22T11:30:59;14.45;;;1.77;;
51438;SDS011;38816;51.142;-0.974;2022-10-22T11:33:28;12.85;;;2.13;;
51438;SDS011;38816;51.142;-0.974;2022-10-22T11:36:10;14.05;;;1.88;;
51438;SDS011;38816;51.142;-0.974;2022-10-22T11:38:36;13.23;;;1.73;;
51438;SDS011;38816;51.142;-0.974;2022-10-22T11:41:18;11.52;;;1.77;;
51438;SDS011;38816;51.142;-0.974;2022-10-22T11:44:07;12.38;;;2.20;;
51438;SDS011;38816;51.142;-0.974;2022-10-22T11:46:39;9.40;;;1.60;;
51438;SDS011;38816;51.142;-0.974;2022-10-22T11:51:37;8.90;;;1.70;;
51438;SDS011;38816;51.142;-0.974;2022-10-22T11:56:57;7.45;;;1.55;;
51438;SDS011;38816;51.142;-0.974;2022-10-22T11:59:39;6.10;;;1.42;;
51438;SDS011;38816;51.142;-0.974;2022-10-22T12:04:53;17.73;;;1.63;;
51438;SDS011;38816;51.142;-0.974;2022-10-22T12:09:54;8.88;;;1.75;;
51438;SDS011;38816;51.142;-0.974;2022-10-22T12:12:22;10.90;;;1.67;;
51438;SDS011;38816;51.142;-0.974;2022-10-22T12:14:55;13.20;;;1.70;;
51438;SDS011;38816;51.142;-0.974;2022-10-22T12:17:22;13.60;;;1.60;;
51438;SDS011;38816;51.142;-0.974;2022-10-22T12:19:50;12.68;;;2.08;;
51438;SDS011;38816;51.142;-0.974;2022-10-22T12:22:27;15.50;;;2.00;;
51438;SDS011;38816;51.142;-0.974;2022-10-22T12:24:55;11.55;;;1.92;;
51438;SDS011;38816;51.142;-0.974;2022-10-22T12:29:54;12.32;;;1.70;;
51438;SDS011;38816;51.142;-0.974;2022-10-22T12:32:21;16.83;;;2.35;;
51438;SDS011;38816;51.142;-0.974;2022-10-22T12:34:48;10.75;;;2.03;;
51438;SDS011;38816;51.142;-0.974;2022-10-22T12:37:16;11.77;;;1.80;;
51438;SDS011;38816;51.142;-0.974;2022-10-22T12:39:43;14.23;;;2.25;;
51438;SDS011;38816;51.142;-0.974;2022-10-22T12:42:12;9.73;;;1.75;;
51438;SDS011;38816;51.142;-0.974;2022-10-22T12:44:39;16.27;;;1.77;;
51438;SDS011;38816;51.142;-0.974;2022-10-22T12:47:05;13.02;;;1.98;;
51438;SDS011;38816;51.142;-0.974;2022-10-22T12:49:33;12.20;;;1.65;;
51438;SDS011;38816;51.142;-0.974;2022-10-22T12:52:06;12.32;;;1.85;;
51438;SDS011;38816;51.142;-0.974;2022-10-22T12:54:37;12.68;;;1.98;;
51438;SDS011;38816;51.142;-0.974;2022-10-22T12:57:04;11.23;;;1.45;;
51438;SDS011;38816;51.142;-0.974;2022-10-22T12:59:33;11.55;;;2.05;;
51438;SDS011;38816;51.142;-0.974;2022-10-22T13:02:01;10.32;;;1.60;;
51438;SDS011;38816;51.142;-0.974;2022-10-22T13:04:39;7.90;;;1.27;;
51438;SDS011;38816;51.142;-0.974;2022-10-22T13:12:23;13.50;;;2.20;;
51438;SDS011;38816;51.142;-0.974;2022-10-22T13:14:49;14.75;;;1.80;;
51438;SDS011;38816;51.142;-0.974;2022-10-22T13:17:19;10.68;;;1.83;;
51438;SDS011;38816;51.142;-0.974;2022-10-22T13:20:01;17.17;;;1.80;;
51438;SDS011;38816;51.142;-0.974;2022-10-22T13:22:38;18.15;;;2.10;;
51438;SDS011;38816;51.142;-0.974;2022-10-22T13:27:43;12.80;;;2.30;;
51438;SDS011;38816;51.142;-0.974;2022-10-22T13:30:29;10.45;;;1.95;;
51438;SDS011;38816;51.142;-0.974;2022-10-22T13:32:57;14.75;;;1.83;;
51438;SDS011;38816;51.142;-0.974;2022-10-22T13:35:42;13.85;;;2.53;;
51438;SDS011;38816;51.142;-0.974;2022-10-22T13:38:12;18.92;;;2.90;;
51438;SDS011;38816;51.142;-0.974;2022-10-22T13:40:42;11.95;;;2.30;;
51438;SDS011;38816;51.142;-0.974;2022-10-22T13:43:07;14.48;;;2.63;;
51438;SDS011;38816;51.142;-0.974;2022-10-22T13:45:33;12.73;;;1.98;;
51438;SDS011;38816;51.142;-0.974;2022-10-22T13:47:58;18.48;;;2.83;;
51438;SDS011;38816;51.142;-0.974;2022-10-22T13:50:23;14.07;;;1.88;;
51438;SDS011;38816;51.142;-0.974;2022-10-22T13:52:50;14.75;;;2.80;;
51438;SDS011;38816;51.142;-0.974;2022-10-22T13:55:22;16.52;;;2.45;;
51438;SDS011;38816;51.142;-0.974;2022-10-22T13:57:50;16.08;;;2.40;;
51438;SDS011;38816;51.142;-0.974;2022-10-22T14:00:20;14.65;;;1.85;;
51438;SDS011;38816;51.142;-0.974;2022-10-22T14:02:51;15.30;;;2.20;;
51438;SDS011;38816;51.142;-0.974;2022-10-22T14:05:20;18.23;;;2.28;;
51438;SDS011;38816;51.142;-0.974;2022-10-22T14:07:46;16.35;;;1.92;;
51438;SDS011;38816;51.142;-0.974;2022-10-22T14:10:17;16.50;;;2.25;;
51438;SDS011;38816;51.142;-0.974;2022-10-22T14:12:44;15.43;;;2.63;;
51438;SDS011;38816;51.142;-0.974;2022-10-22T14:15:12;17.48;;;2.30;;
51438;SDS011;38816;51.142;-0.974;2022-10-22T14:17:40;13.90;;;2.10;;
51438;SDS011;38816;51.142;-0.974;2022-10-22T14:20:15;19.15;;;2.50;;
51438;SDS011;38816;51.142;-0.974;2022-10-22T14:22:45;19.58;;;2.63;;
51438;SDS011;38816;51.142;-0.974;2022-10-22T14:25:15;14.20;;;2.03;;
51438;SDS011;38816;51.142;-0.974;2022-10-22T14:27:42;11.15;;;2.05;;
51438;SDS011;38816;51.142;-0.974;2022-10-22T14:30:07;19.15;;;2.42;;
51438;SDS011;38816;51.142;-0.974;2022-10-22T14:32:33;10.95;;;2.05;;
51438;SDS011;38816;51.142;-0.974;2022-10-22T14:34:59;13.93;;;2.28;;
51438;SDS011;38816;51.142;-0.974;2022-10-22T14:37:25;18.40;;;2.17;;
51438;SDS011;38816;51.142;-0.974;2022-10-22T14:39:50;12.93;;;2.10;;
51438;SDS011;38816;51.142;-0.974;2022-10-22T14:42:24;16.17;;;2.40;;
51438;SDS011;38816;51.142;-0.974;2022-10-22T14:44:50;12.40;;;2.65;;
51438;SDS011;38816;51.142;-0.974;2022-10-22T14:47:15;16.27;;;2.40;;
51438;SDS011;38816;51.142;-0.974;2022-10-22T14:49:40;11.80;;;2.08;;
51438;SDS011;38816;51.142;-0.974;2022-10-22T14:52:06;18.08;;;2.28;;
51438;SDS011;38816;51.142;-0.974;2022-10-22T14:54:31;16.15;;;3.28;;
51438;SDS011;38816;51.142;-0.974;2022-10-22T14:56:57;21.27;;;2.47;;
51438;SDS011;38816;51.142;-0.974;2022-10-22T14:59:23;18.80;;;2.55;;
51438;SDS011;38816;51.142;-0.974;2022-10-22T15:01:48;20.73;;;2.35;;
51438;SDS011;38816;51.142;-0.974;2022-10-22T15:04:14;14.20;;;2.20;;
51438;SDS011;38816;51.142;-0.974;2022-10-22T15:06:39;13.57;;;2.03;;
51438;SDS011;38816;51.142;-0.974;2022-10-22T15:09:05;17.10;;;2.85;;
51438;SDS011;38816;51.142;-0.974;2022-10-22T15:11:30;14.05;;;2.50;;
51438;SDS011;38816;51.142;-0.974;2022-10-22T15:13:55;13.48;;;2.10;;
51438;SDS011;38816;51.142;-0.974;2022-10-22T15:16:21;19.30;;;2.50;;
51438;SDS011;38816;51.142;-0.974;2022-10-22T15:18:46;24.02;;;3.58;;
51438;SDS011;38816;51.142;-0.974;2022-10-22T15:21:16;16.50;;;2.33;;
51438;SDS011;38816;51.142;-0.974;2022-10-22T15:23:43;18.23;;;2.00;;
51438;SDS011;38816;51.142;-0.974;2022-10-22T15:26:09;20.00;;;3.42;;
51438;SDS011;38816;51.142;-0.974;2022-10-22T15:28:35;17.58;;;2.60;;
51438;SDS011;38816;51.142;-0.974;2022-10-22T15:31:02;14.57;;;2.40;;
51438;SDS011;38816;51.142;-0.974;2022-10-22T15:33:28;14.98;;;2.08;;
51438;SDS011;38816;51.142;-0.974;2022-10-22T15:35:54;10.73;;;1.95;;
51438;SDS011;38816;51.142;-0.974;2022-10-22T15:38:20;16.92;;;2.40;;
51438;SDS011;38816;51.142;-0.974;2022-10-22T15:40:46;17.30;;;2.38;;
51438;SDS011;38816;51.142;-0.974;2022-10-22T15:43:11;13.40;;;2.30;;
51438;SDS011;38816;51.142;-0.974;2022-10-22T15:45:37;22.17;;;2.63;;
51438;SDS011;38816;51.142;-0.974;2022-10-22T15:48:03;14.75;;;2.63;;
51438;SDS011;38816;51.142;-0.974;2022-10-22T15:50:28;19.08;;;2.65;;
51438;SDS011;38816;51.142;-0.974;2022-10-22T15:52:54;18.17;;;2.63;;
51438;SDS011;38816;51.142;-0.974;2022-10-22T15:55:20;23.63;;;2.20;;
51438;SDS011;38816;51.142;-0.974;2022-10-22T15:57:45;12.25;;;1.98;;
51438;SDS011;38816;51.142;-0.974;2022-10-22T16:00:11;15.98;;;2.38;;
51438;SDS011;38816;51.142;-0.974;2022-10-22T16:02:37;17.02;;;2.40;;
51438;SDS011;38816;51.142;-0.974;2022-10-22T16:05:03;16.80;;;2.95;;
51438;SDS011;38816;51.142;-0.974;2022-10-22T16:07:29;14.43;;;2.55;;
51438;SDS011;38816;51.142;-0.974;2022-10-22T16:09:55;18.35;;;2.20;;
51438;SDS011;38816;51.142;-0.974;2022-10-22T16:12:22;19.55;;;2.42;;
51438;SDS011;38816;51.142;-0.974;2022-10-22T16:14:50;16.58;;;3.45;;